sensor_id;sensor_type;location;lat;lon;timestamp;P1;durP1;ratioP1;P2;durP2;ratioP2
15595;SDS011;7898;48.658;9.068;2023-06-26T00:00:04;11.18;;;8.65;;
15595;SDS011;7898;48.658;9.068;2023-06-26T00:02:32;10.50;;;8.70;;
15595;SDS011;7898;48.658;9.068;2023-06-26T00:04:59;11.57;;;8.90;;
15595;SDS011;7898;48.658;9.068;2023-06-26T00:07:27;11.82;;;9.52;;
15595;SDS011;7898;48.658;9.068;2023-06-26T00:09:55;12.48;;;8.73;;
15595;SDS011;7898;48.658;9.068;2023-06-26T00:12:22;13.02;;;9.00;;
15595;SDS011;7898;48.658;9.068;2023-06-26T00:14:50;10.20;;;8.65;;
15595;SDS011;7898;48.658;9.068;2023-06-26T00:17:17;9.38;;;8.35;;
15595;SDS011;7898;48.658;9.068;2023-06-26T00:19:44;10.38;;;8.48;;
15595;SDS011;7898;48.658;9.068;2023-06-26T00:22:11;9.68;;;8.43;;
15595;SDS011;7898;48.658;9.068;2023-06-26T00:24:38;11.27;;;9.27;;
15595;SDS011;7898;48.658;9.068;2023-06-26T00:27:05;13.07;;;9.57;;
15595;SDS011;7898;48.658;9.068;2023-06-26T00:29:32;13.40;;;9.20;;
15595;SDS011;7898;48.658;9.068;2023-06-26T00:32:01;11.07;;;8.68;;
15595;SDS011;7898;48.658;9.068;2023-06-26T00:34:28;11.38;;;9.10;;
15595;SDS011;7898;48.658;9.068;2023-06-26T00:36:55;10.00;;;8.07;;
15595;SDS011;7898;48.658;9.068;2023-06-26T00:39:22;11.05;;;8.90;;
15595;SDS011;7898;48.658;9.068;2023-06-26T00:41:50;11.23;;;8.70;;
15595;SDS011;7898;48.658;9.068;2023-06-26T00:44:18;12.15;;;8.95;;
15595;SDS011;7898;48.658;9.068;2023-06-26T00:46:45;10.35;;;8.43;;
15595;SDS011;7898;48.658;9.068;2023-06-26T00:49:14;11.32;;;8.77;;
15595;SDS011;7898;48.658;9.068;2023-06-26T00:51:41;11.35;;;8.88;;
15595;SDS011;7898;48.658;9.068;2023-06-26T00:54:09;11.30;;;8.35;;
15595;SDS011;7898;48.658;9.068;2023-06-26T00:56:36;12.00;;;9.00;;
15595;SDS011;7898;48.658;9.068;2023-06-26T00:59:03;13.02;;;9.15;;
15595;SDS011;7898;48.658;9.068;2023-06-26T01:01:30;11.23;;;8.68;;
15595;SDS011;7898;48.658;9.068;2023-06-26T01:03:57;12.25;;;8.82;;
15595;SDS011;7898;48.658;9.068;2023-06-26T01:06:25;10.20;;;8.48;;
15595;SDS011;7898;48.658;9.068;2023-06-26T01:08:57;9.75;;;7.75;;
15595;SDS011;7898;48.658;9.068;2023-06-26T01:11:24;9.07;;;8.00;;
15595;SDS011;7898;48.658;9.068;2023-06-26T01:13:51;11.05;;;9.45;;
15595;SDS011;7898;48.658;9.068;2023-06-26T01:16:19;10.88;;;9.00;;
15595;SDS011;7898;48.658;9.068;2023-06-26T01:18:47;13.35;;;8.50;;
15595;SDS011;7898;48.658;9.068;2023-06-26T01:21:14;10.05;;;8.57;;
15595;SDS011;7898;48.658;9.068;2023-06-26T01:23:48;10.55;;;8.60;;
15595;SDS011;7898;48.658;9.068;2023-06-26T01:26:25;11.20;;;8.95;;
15595;SDS011;7898;48.658;9.068;2023-06-26T01:28:55;10.52;;;8.93;;
15595;SDS011;7898;48.658;9.068;2023-06-26T01:31:24;9.98;;;8.32;;
15595;SDS011;7898;48.658;9.068;2023-06-26T01:33:52;12.18;;;8.43;;
15595;SDS011;7898;48.658;9.068;2023-06-26T01:36:19;10.98;;;8.35;;
15595;SDS011;7898;48.658;9.068;2023-06-26T01:38:46;10.07;;;8.75;;
15595;SDS011;7898;48.658;9.068;2023-06-26T01:41:13;11.07;;;8.95;;
15595;SDS011;7898;48.658;9.068;2023-06-26T01:43:43;12.38;;;9.43;;
15595;SDS011;7898;48.658;9.068;2023-06-26T01:46:23;9.95;;;8.73;;
15595;SDS011;7898;48.658;9.068;2023-06-26T01:48:53;10.32;;;8.80;;
15595;SDS011;7898;48.658;9.068;2023-06-26T01:51:35;12.25;;;9.70;;
15595;SDS011;7898;48.658;9.068;2023-06-26T01:54:06;13.05;;;9.00;;
15595;SDS011;7898;48.658;9.068;2023-06-26T01:56:40;9.93;;;8.23;;
15595;SDS011;7898;48.658;9.068;2023-06-26T01:59:10;9.45;;;8.20;;
15595;SDS011;7898;48.658;9.068;2023-06-26T02:01:39;9.27;;;8.10;;
15595;SDS011;7898;48.658;9.068;2023-06-26T02:04:06;12.43;;;9.23;;
15595;SDS011;7898;48.658;9.068;2023-06-26T02:06:32;10.63;;;8.90;;
15595;SDS011;7898;48.658;9.068;2023-06-26T02:08:59;11.77;;;9.32;;
15595;SDS011;7898;48.658;9.068;2023-06-26T02:11:27;11.77;;;9.27;;
15595;SDS011;7898;48.658;9.068;2023-06-26T02:13:54;13.20;;;9.63;;
15595;SDS011;7898;48.658;9.068;2023-06-26T02:16:22;17.05;;;9.30;;
15595;SDS011;7898;48.658;9.068;2023-06-26T02:18:49;10.50;;;8.90;;
15595;SDS011;7898;48.658;9.068;2023-06-26T02:21:16;14.63;;;9.60;;
15595;SDS011;7898;48.658;9.068;2023-06-26T02:23:43;10.88;;;9.07;;
15595;SDS011;7898;48.658;9.068;2023-06-26T02:26:10;11.93;;;10.05;;
15595;SDS011;7898;48.658;9.068;2023-06-26T02:28:37;12.13;;;9.35;;
15595;SDS011;7898;48.658;9.068;2023-06-26T02:31:04;11.05;;;9.45;;
15595;SDS011;7898;48.658;9.068;2023-06-26T02:33:32;11.40;;;9.50;;
15595;SDS011;7898;48.658;9.068;2023-06-26T02:35:59;12.20;;;8.93;;
15595;SDS011;7898;48.658;9.068;2023-06-26T02:38:26;12.13;;;9.27;;
15595;SDS011;7898;48.658;9.068;2023-06-26T02:40:53;12.93;;;9.10;;
15595;SDS011;7898;48.658;9.068;2023-06-26T02:43:19;10.57;;;8.80;;
15595;SDS011;7898;48.658;9.068;2023-06-26T02:45:46;11.43;;;9.13;;
15595;SDS011;7898;48.658;9.068;2023-06-26T02:48:13;10.57;;;8.90;;
15595;SDS011;7898;48.658;9.068;2023-06-26T02:50:41;11.27;;;8.80;;
15595;SDS011;7898;48.658;9.068;2023-06-26T02:53:11;10.57;;;9.15;;
15595;SDS011;7898;48.658;9.068;2023-06-26T02:55:37;13.25;;;9.77;;
15595;SDS011;7898;48.658;9.068;2023-06-26T02:58:04;12.55;;;9.60;;
15595;SDS011;7898;48.658;9.068;2023-06-26T03:00:31;12.13;;;8.70;;
15595;SDS011;7898;48.658;9.068;2023-06-26T03:02:58;11.85;;;9.10;;
15595;SDS011;7898;48.658;9.068;2023-06-26T03:05:25;10.45;;;8.70;;
15595;SDS011;7898;48.658;9.068;2023-06-26T03:07:53;11.57;;;8.40;;
15595;SDS011;7898;48.658;9.068;2023-06-26T03:10:20;11.38;;;8.95;;
15595;SDS011;7898;48.658;9.068;2023-06-26T03:12:47;11.55;;;9.25;;
15595;SDS011;7898;48.658;9.068;2023-06-26T03:15:14;10.95;;;8.80;;
15595;SDS011;7898;48.658;9.068;2023-06-26T03:17:43;12.30;;;9.48;;
15595;SDS011;7898;48.658;9.068;2023-06-26T03:20:10;10.05;;;8.75;;
15595;SDS011;7898;48.658;9.068;2023-06-26T03:22:37;10.55;;;9.10;;
15595;SDS011;7898;48.658;9.068;2023-06-26T03:25:05;13.60;;;10.07;;
15595;SDS011;7898;48.658;9.068;2023-06-26T03:27:32;13.73;;;9.23;;
15595;SDS011;7898;48.658;9.068;2023-06-26T03:29:59;12.73;;;9.82;;
15595;SDS011;7898;48.658;9.068;2023-06-26T03:32:26;10.35;;;8.77;;
15595;SDS011;7898;48.658;9.068;2023-06-26T03:34:53;12.48;;;9.82;;
15595;SDS011;7898;48.658;9.068;2023-06-26T03:37:20;12.13;;;9.20;;
15595;SDS011;7898;48.658;9.068;2023-06-26T03:39:47;13.68;;;9.35;;
15595;SDS011;7898;48.658;9.068;2023-06-26T03:42:15;12.23;;;9.88;;
15595;SDS011;7898;48.658;9.068;2023-06-26T03:44:42;13.63;;;9.93;;
15595;SDS011;7898;48.658;9.068;2023-06-26T03:47:09;12.80;;;9.32;;
15595;SDS011;7898;48.658;9.068;2023-06-26T03:49:36;12.75;;;9.45;;
15595;SDS011;7898;48.658;9.068;2023-06-26T03:52:03;12.70;;;9.93;;
15595;SDS011;7898;48.658;9.068;2023-06-26T03:54:30;10.85;;;9.45;;
15595;SDS011;7898;48.658;9.068;2023-06-26T03:56:59;12.30;;;8.57;;
15595;SDS011;7898;48.658;9.068;2023-06-26T03:59:27;12.23;;;9.88;;
15595;SDS011;7898;48.658;9.068;2023-06-26T04:01:54;12.13;;;9.05;;
15595;SDS011;7898;48.658;9.068;2023-06-26T04:04:21;11.75;;;9.65;;
15595;SDS011;7898;48.658;9.068;2023-06-26T04:06:48;16.05;;;10.00;;
15595;SDS011;7898;48.658;9.068;2023-06-26T04:09:15;10.75;;;8.70;;
15595;SDS011;7898;48.658;9.068;2023-06-26T04:11:43;14.45;;;9.05;;
15595;SDS011;7898;48.658;9.068;2023-06-26T04:14:10;13.27;;;9.13;;
15595;SDS011;7898;48.658;9.068;2023-06-26T04:16:39;12.18;;;9.45;;
15595;SDS011;7898;48.658;9.068;2023-06-26T04:19:06;13.70;;;9.18;;
15595;SDS011;7898;48.658;9.068;2023-06-26T04:21:33;12.55;;;9.07;;
15595;SDS011;7898;48.658;9.068;2023-06-26T04:23:59;11.40;;;10.13;;
15595;SDS011;7898;48.658;9.068;2023-06-26T04:26:26;11.65;;;10.30;;
15595;SDS011;7898;48.658;9.068;2023-06-26T04:28:54;12.95;;;10.27;;
15595;SDS011;7898;48.658;9.068;2023-06-26T04:31:20;11.27;;;9.50;;
15595;SDS011;7898;48.658;9.068;2023-06-26T04:33:49;11.13;;;8.70;;
15595;SDS011;7898;48.658;9.068;2023-06-26T04:36:18;13.07;;;9.23;;
15595;SDS011;7898;48.658;9.068;2023-06-26T04:38:45;11.07;;;9.48;;
15595;SDS011;7898;48.658;9.068;2023-06-26T04:41:13;15.25;;;9.55;;
15595;SDS011;7898;48.658;9.068;2023-06-26T04:43:40;11.90;;;9.40;;
15595;SDS011;7898;48.658;9.068;2023-06-26T04:46:06;12.75;;;9.50;;
15595;SDS011;7898;48.658;9.068;2023-06-26T04:48:33;11.80;;;9.23;;
15595;SDS011;7898;48.658;9.068;2023-06-26T04:51:01;11.52;;;8.93;;
15595;SDS011;7898;48.658;9.068;2023-06-26T04:53:28;10.93;;;9.15;;
15595;SDS011;7898;48.658;9.068;2023-06-26T04:55:55;12.38;;;9.95;;
15595;SDS011;7898;48.658;9.068;2023-06-26T04:58:22;12.60;;;9.68;;
15595;SDS011;7898;48.658;9.068;2023-06-26T05:00:49;11.10;;;9.25;;
15595;SDS011;7898;48.658;9.068;2023-06-26T05:03:16;15.25;;;10.35;;
15595;SDS011;7898;48.658;9.068;2023-06-26T05:05:44;10.40;;;8.55;;
15595;SDS011;7898;48.658;9.068;2023-06-26T05:08:15;13.00;;;9.15;;
15595;SDS011;7898;48.658;9.068;2023-06-26T05:10:43;11.18;;;8.82;;
15595;SDS011;7898;48.658;9.068;2023-06-26T05:13:10;13.40;;;9.35;;
15595;SDS011;7898;48.658;9.068;2023-06-26T05:15:40;12.75;;;9.23;;
15595;SDS011;7898;48.658;9.068;2023-06-26T05:18:07;11.25;;;8.48;;
15595;SDS011;7898;48.658;9.068;2023-06-26T05:20:34;10.88;;;8.82;;
15595;SDS011;7898;48.658;9.068;2023-06-26T05:23:01;13.65;;;9.00;;
15595;SDS011;7898;48.658;9.068;2023-06-26T05:25:30;11.18;;;8.73;;
15595;SDS011;7898;48.658;9.068;2023-06-26T05:27:59;10.50;;;8.52;;
15595;SDS011;7898;48.658;9.068;2023-06-26T05:30:27;10.13;;;8.00;;
15595;SDS011;7898;48.658;9.068;2023-06-26T05:32:56;10.88;;;8.02;;
15595;SDS011;7898;48.658;9.068;2023-06-26T05:35:24;11.55;;;7.88;;
15595;SDS011;7898;48.658;9.068;2023-06-26T05:37:54;12.25;;;7.75;;
15595;SDS011;7898;48.658;9.068;2023-06-26T05:40:22;8.82;;;7.93;;
15595;SDS011;7898;48.658;9.068;2023-06-26T05:42:51;8.82;;;7.80;;
15595;SDS011;7898;48.658;9.068;2023-06-26T05:45:18;9.50;;;7.68;;
15595;SDS011;7898;48.658;9.068;2023-06-26T05:47:45;11.07;;;7.88;;
15595;SDS011;7898;48.658;9.068;2023-06-26T05:50:13;9.40;;;8.32;;
15595;SDS011;7898;48.658;9.068;2023-06-26T05:52:41;10.82;;;7.65;;
15595;SDS011;7898;48.658;9.068;2023-06-26T05:55:09;10.80;;;7.88;;
15595;SDS011;7898;48.658;9.068;2023-06-26T05:57:37;11.02;;;7.68;;
15595;SDS011;7898;48.658;9.068;2023-06-26T06:00:07;9.25;;;7.22;;
15595;SDS011;7898;48.658;9.068;2023-06-26T06:02:35;8.02;;;7.22;;
15595;SDS011;7898;48.658;9.068;2023-06-26T06:05:03;10.75;;;7.32;;
15595;SDS011;7898;48.658;9.068;2023-06-26T06:07:30;9.15;;;7.90;;
15595;SDS011;7898;48.658;9.068;2023-06-26T06:09:58;9.48;;;7.88;;
15595;SDS011;7898;48.658;9.068;2023-06-26T06:12:25;8.90;;;7.88;;
15595;SDS011;7898;48.658;9.068;2023-06-26T06:14:52;7.78;;;6.97;;
15595;SDS011;7898;48.658;9.068;2023-06-26T06:17:20;8.18;;;7.22;;
15595;SDS011;7898;48.658;9.068;2023-06-26T06:19:48;8.73;;;6.50;;
15595;SDS011;7898;48.658;9.068;2023-06-26T06:22:15;8.23;;;7.40;;
15595;SDS011;7898;48.658;9.068;2023-06-26T06:24:42;8.10;;;6.78;;
15595;SDS011;7898;48.658;9.068;2023-06-26T06:27:10;7.10;;;6.45;;
15595;SDS011;7898;48.658;9.068;2023-06-26T06:29:38;8.60;;;7.25;;
15595;SDS011;7898;48.658;9.068;2023-06-26T06:32:05;7.65;;;6.85;;
15595;SDS011;7898;48.658;9.068;2023-06-26T06:34:34;7.80;;;6.60;;
15595;SDS011;7898;48.658;9.068;2023-06-26T06:37:01;7.63;;;6.88;;
15595;SDS011;7898;48.658;9.068;2023-06-26T06:39:28;11.00;;;6.75;;
15595;SDS011;7898;48.658;9.068;2023-06-26T06:41:55;7.45;;;6.75;;
15595;SDS011;7898;48.658;9.068;2023-06-26T06:44:22;7.65;;;6.47;;
15595;SDS011;7898;48.658;9.068;2023-06-26T06:46:49;8.40;;;6.90;;
15595;SDS011;7898;48.658;9.068;2023-06-26T06:49:16;8.35;;;7.50;;
15595;SDS011;7898;48.658;9.068;2023-06-26T06:51:44;7.50;;;6.70;;
15595;SDS011;7898;48.658;9.068;2023-06-26T06:54:11;7.40;;;6.70;;
15595;SDS011;7898;48.658;9.068;2023-06-26T06:56:38;7.07;;;6.47;;
15595;SDS011;7898;48.658;9.068;2023-06-26T06:59:05;7.50;;;6.70;;
15595;SDS011;7898;48.658;9.068;2023-06-26T07:01:32;7.53;;;6.82;;
15595;SDS011;7898;48.658;9.068;2023-06-26T07:03:59;6.82;;;6.22;;
15595;SDS011;7898;48.658;9.068;2023-06-26T07:06:26;7.80;;;6.82;;
15595;SDS011;7898;48.658;9.068;2023-06-26T07:08:54;7.88;;;6.57;;
15595;SDS011;7898;48.658;9.068;2023-06-26T07:11:21;7.65;;;6.85;;
15595;SDS011;7898;48.658;9.068;2023-06-26T07:13:48;6.85;;;6.25;;
15595;SDS011;7898;48.658;9.068;2023-06-26T07:16:15;7.70;;;6.90;;
15595;SDS011;7898;48.658;9.068;2023-06-26T07:18:42;7.35;;;6.65;;
15595;SDS011;7898;48.658;9.068;2023-06-26T07:21:09;7.85;;;7.05;;
15595;SDS011;7898;48.658;9.068;2023-06-26T07:23:36;6.88;;;6.28;;
15595;SDS011;7898;48.658;9.068;2023-06-26T07:26:04;6.93;;;6.22;;
15595;SDS011;7898;48.658;9.068;2023-06-26T07:28:31;7.20;;;6.50;;
15595;SDS011;7898;48.658;9.068;2023-06-26T07:30:58;8.15;;;6.40;;
15595;SDS011;7898;48.658;9.068;2023-06-26T07:33:25;8.50;;;6.85;;
15595;SDS011;7898;48.658;9.068;2023-06-26T07:35:52;9.43;;;6.90;;
15595;SDS011;7898;48.658;9.068;2023-06-26T07:38:18;7.35;;;6.53;;
15595;SDS011;7898;48.658;9.068;2023-06-26T07:40:45;7.47;;;6.68;;
15595;SDS011;7898;48.658;9.068;2023-06-26T07:43:13;7.50;;;6.35;;
15595;SDS011;7898;48.658;9.068;2023-06-26T07:45:40;8.25;;;6.78;;
15595;SDS011;7898;48.658;9.068;2023-06-26T07:48:08;7.65;;;6.93;;
15595;SDS011;7898;48.658;9.068;2023-06-26T07:50:35;6.93;;;6.00;;
15595;SDS011;7898;48.658;9.068;2023-06-26T07:53:01;6.60;;;6.00;;
15595;SDS011;7898;48.658;9.068;2023-06-26T07:55:30;6.90;;;6.25;;
15595;SDS011;7898;48.658;9.068;2023-06-26T07:57:57;15.00;;;6.55;;
15595;SDS011;7898;48.658;9.068;2023-06-26T08:00:25;7.20;;;6.50;;
15595;SDS011;7898;48.658;9.068;2023-06-26T08:02:52;6.65;;;6.05;;
15595;SDS011;7898;48.658;9.068;2023-06-26T08:05:19;8.90;;;6.80;;
15595;SDS011;7898;48.658;9.068;2023-06-26T08:07:46;10.05;;;7.05;;
15595;SDS011;7898;48.658;9.068;2023-06-26T08:10:13;7.07;;;6.35;;
15595;SDS011;7898;48.658;9.068;2023-06-26T08:12:40;7.38;;;6.57;;
15595;SDS011;7898;48.658;9.068;2023-06-26T08:15:09;7.53;;;6.82;;
15595;SDS011;7898;48.658;9.068;2023-06-26T08:17:38;6.57;;;5.97;;
15595;SDS011;7898;48.658;9.068;2023-06-26T08:20:05;6.88;;;6.28;;
15595;SDS011;7898;48.658;9.068;2023-06-26T08:22:34;7.43;;;6.28;;
15595;SDS011;7898;48.658;9.068;2023-06-26T08:25:01;7.25;;;6.35;;
15595;SDS011;7898;48.658;9.068;2023-06-26T08:27:29;7.32;;;6.63;;
15595;SDS011;7898;48.658;9.068;2023-06-26T08:29:56;6.57;;;5.97;;
15595;SDS011;7898;48.658;9.068;2023-06-26T08:32:23;7.47;;;6.03;;
15595;SDS011;7898;48.658;9.068;2023-06-26T08:34:52;7.60;;;5.97;;
15595;SDS011;7898;48.658;9.068;2023-06-26T08:37:19;6.65;;;6.05;;
15595;SDS011;7898;48.658;9.068;2023-06-26T08:39:46;6.22;;;5.63;;
15595;SDS011;7898;48.658;9.068;2023-06-26T08:42:14;6.78;;;6.07;;
15595;SDS011;7898;48.658;9.068;2023-06-26T08:44:40;6.40;;;5.80;;
15595;SDS011;7898;48.658;9.068;2023-06-26T08:47:07;6.60;;;5.95;;
15595;SDS011;7898;48.658;9.068;2023-06-26T08:49:38;7.10;;;6.40;;
15595;SDS011;7898;48.658;9.068;2023-06-26T08:52:16;7.13;;;6.28;;
15595;SDS011;7898;48.658;9.068;2023-06-26T08:54:45;7.57;;;6.32;;
15595;SDS011;7898;48.658;9.068;2023-06-26T08:57:15;6.88;;;5.95;;
15595;SDS011;7898;48.658;9.068;2023-06-26T08:59:45;6.70;;;6.00;;
15595;SDS011;7898;48.658;9.068;2023-06-26T09:02:13;6.32;;;5.72;;
15595;SDS011;7898;48.658;9.068;2023-06-26T09:04:40;6.70;;;6.10;;
15595;SDS011;7898;48.658;9.068;2023-06-26T09:07:07;7.07;;;5.90;;
15595;SDS011;7898;48.658;9.068;2023-06-26T09:09:36;6.72;;;5.78;;
15595;SDS011;7898;48.658;9.068;2023-06-26T09:12:04;6.30;;;5.72;;
15595;SDS011;7898;48.658;9.068;2023-06-26T09:14:31;6.53;;;5.95;;
15595;SDS011;7898;48.658;9.068;2023-06-26T09:16:58;6.82;;;6.20;;
15595;SDS011;7898;48.658;9.068;2023-06-26T09:19:25;7.10;;;6.47;;
15595;SDS011;7898;48.658;9.068;2023-06-26T09:21:52;6.60;;;6.00;;
15595;SDS011;7898;48.658;9.068;2023-06-26T09:24:21;6.50;;;5.90;;
15595;SDS011;7898;48.658;9.068;2023-06-26T09:26:50;8.20;;;5.80;;
15595;SDS011;7898;48.658;9.068;2023-06-26T09:29:17;7.03;;;6.38;;
15595;SDS011;7898;48.658;9.068;2023-06-26T09:31:45;7.63;;;6.03;;
15595;SDS011;7898;48.658;9.068;2023-06-26T09:34:12;6.90;;;6.20;;
15595;SDS011;7898;48.658;9.068;2023-06-26T09:36:52;7.72;;;6.03;;
15595;SDS011;7898;48.658;9.068;2023-06-26T09:39:19;7.07;;;5.75;;
15595;SDS011;7898;48.658;9.068;2023-06-26T09:41:46;7.05;;;6.35;;
15595;SDS011;7898;48.658;9.068;2023-06-26T09:44:14;6.45;;;5.85;;
15595;SDS011;7898;48.658;9.068;2023-06-26T09:46:44;8.05;;;6.35;;
15595;SDS011;7898;48.658;9.068;2023-06-26T09:49:12;6.80;;;6.20;;
15595;SDS011;7898;48.658;9.068;2023-06-26T09:51:39;6.50;;;5.82;;
15595;SDS011;7898;48.658;9.068;2023-06-26T09:54:09;6.85;;;6.18;;
15595;SDS011;7898;48.658;9.068;2023-06-26T09:56:36;6.72;;;6.13;;
15595;SDS011;7898;48.658;9.068;2023-06-26T09:59:04;6.90;;;5.88;;
15595;SDS011;7898;48.658;9.068;2023-06-26T10:01:32;8.95;;;6.60;;
15595;SDS011;7898;48.658;9.068;2023-06-26T10:03:59;6.90;;;6.22;;
15595;SDS011;7898;48.658;9.068;2023-06-26T10:06:27;6.88;;;6.15;;
15595;SDS011;7898;48.658;9.068;2023-06-26T10:08:58;6.70;;;6.10;;
15595;SDS011;7898;48.658;9.068;2023-06-26T10:11:29;7.40;;;6.25;;
15595;SDS011;7898;48.658;9.068;2023-06-26T10:14:01;6.53;;;5.93;;
15595;SDS011;7898;48.658;9.068;2023-06-26T10:16:30;7.40;;;6.70;;
15595;SDS011;7898;48.658;9.068;2023-06-26T10:19:01;6.75;;;6.15;;
15595;SDS011;7898;48.658;9.068;2023-06-26T10:21:31;7.70;;;6.70;;
15595;SDS011;7898;48.658;9.068;2023-06-26T10:24:00;7.03;;;6.32;;
15595;SDS011;7898;48.658;9.068;2023-06-26T10:26:31;7.40;;;6.70;;
15595;SDS011;7898;48.658;9.068;2023-06-26T10:29:04;7.40;;;6.70;;
15595;SDS011;7898;48.658;9.068;2023-06-26T10:31:32;7.63;;;6.80;;
15595;SDS011;7898;48.658;9.068;2023-06-26T10:34:00;7.38;;;6.68;;
15595;SDS011;7898;48.658;9.068;2023-06-26T10:36:28;7.00;;;6.35;;
15595;SDS011;7898;48.658;9.068;2023-06-26T10:38:58;7.10;;;6.50;;
15595;SDS011;7898;48.658;9.068;2023-06-26T10:41:35;7.13;;;6.43;;
15595;SDS011;7898;48.658;9.068;2023-06-26T10:44:07;7.97;;;7.20;;
15595;SDS011;7898;48.658;9.068;2023-06-26T10:46:48;8.48;;;6.93;;
15595;SDS011;7898;48.658;9.068;2023-06-26T10:49:17;8.48;;;7.68;;
15595;SDS011;7898;48.658;9.068;2023-06-26T10:51:48;9.07;;;8.18;;
15595;SDS011;7898;48.658;9.068;2023-06-26T10:54:15;8.02;;;7.32;;
15595;SDS011;7898;48.658;9.068;2023-06-26T10:56:45;8.10;;;7.30;;
15595;SDS011;7898;48.658;9.068;2023-06-26T10:59:14;8.45;;;7.53;;
15595;SDS011;7898;48.658;9.068;2023-06-26T11:01:43;9.98;;;7.38;;
15595;SDS011;7898;48.658;9.068;2023-06-26T11:04:11;8.63;;;7.82;;
15595;SDS011;7898;48.658;9.068;2023-06-26T11:06:41;8.52;;;7.72;;
15595;SDS011;7898;48.658;9.068;2023-06-26T11:09:14;8.63;;;7.78;;
15595;SDS011;7898;48.658;9.068;2023-06-26T11:11:56;8.18;;;7.40;;
15595;SDS011;7898;48.658;9.068;2023-06-26T11:14:31;8.68;;;7.80;;
15595;SDS011;7898;48.658;9.068;2023-06-26T11:16:58;8.05;;;7.25;;
15595;SDS011;7898;48.658;9.068;2023-06-26T11:19:30;11.40;;;8.32;;
15595;SDS011;7898;48.658;9.068;2023-06-26T11:22:03;8.35;;;7.55;;
15595;SDS011;7898;48.658;9.068;2023-06-26T11:24:31;8.45;;;7.63;;
15595;SDS011;7898;48.658;9.068;2023-06-26T11:27:06;8.65;;;7.75;;
15595;SDS011;7898;48.658;9.068;2023-06-26T11:29:33;9.05;;;7.38;;
15595;SDS011;7898;48.658;9.068;2023-06-26T11:32:01;8.82;;;7.65;;
15595;SDS011;7898;48.658;9.068;2023-06-26T11:34:30;8.55;;;7.75;;
15595;SDS011;7898;48.658;9.068;2023-06-26T11:36:58;8.38;;;7.47;;
15595;SDS011;7898;48.658;9.068;2023-06-26T11:39:26;9.77;;;7.80;;
15595;SDS011;7898;48.658;9.068;2023-06-26T11:41:54;9.68;;;8.07;;
15595;SDS011;7898;48.658;9.068;2023-06-26T11:44:22;8.57;;;7.78;;
15595;SDS011;7898;48.658;9.068;2023-06-26T11:46:51;8.30;;;7.50;;
15595;SDS011;7898;48.658;9.068;2023-06-26T11:49:20;7.85;;;7.05;;
15595;SDS011;7898;48.658;9.068;2023-06-26T11:51:50;7.45;;;6.82;;
15595;SDS011;7898;48.658;9.068;2023-06-26T11:54:23;8.30;;;7.53;;
15595;SDS011;7898;48.658;9.068;2023-06-26T11:56:57;9.93;;;7.07;;
15595;SDS011;7898;48.658;9.068;2023-06-26T11:59:36;8.98;;;8.18;;
15595;SDS011;7898;48.658;9.068;2023-06-26T12:02:05;8.40;;;7.60;;
15595;SDS011;7898;48.658;9.068;2023-06-26T12:04:34;8.45;;;7.65;;
15595;SDS011;7898;48.658;9.068;2023-06-26T12:07:04;8.00;;;7.30;;
15595;SDS011;7898;48.658;9.068;2023-06-26T12:09:34;8.50;;;7.70;;
15595;SDS011;7898;48.658;9.068;2023-06-26T12:12:09;8.75;;;7.95;;
15595;SDS011;7898;48.658;9.068;2023-06-26T12:14:38;8.20;;;7.45;;
15595;SDS011;7898;48.658;9.068;2023-06-26T12:17:08;8.40;;;7.38;;
15595;SDS011;7898;48.658;9.068;2023-06-26T12:19:36;8.38;;;7.35;;
15595;SDS011;7898;48.658;9.068;2023-06-26T12:22:07;8.27;;;7.47;;
15595;SDS011;7898;48.658;9.068;2023-06-26T12:24:36;8.43;;;7.63;;
15595;SDS011;7898;48.658;9.068;2023-06-26T12:27:07;7.88;;;7.18;;
15595;SDS011;7898;48.658;9.068;2023-06-26T12:29:35;8.30;;;7.50;;
15595;SDS011;7898;48.658;9.068;2023-06-26T12:32:07;8.27;;;7.57;;
15595;SDS011;7898;48.658;9.068;2023-06-26T12:34:36;8.85;;;7.35;;
15595;SDS011;7898;48.658;9.068;2023-06-26T12:37:04;8.45;;;7.60;;
15595;SDS011;7898;48.658;9.068;2023-06-26T12:39:44;7.63;;;6.88;;
15595;SDS011;7898;48.658;9.068;2023-06-26T12:42:13;8.63;;;7.07;;
15595;SDS011;7898;48.658;9.068;2023-06-26T12:44:41;7.55;;;6.85;;
15595;SDS011;7898;48.658;9.068;2023-06-26T12:47:10;9.95;;;7.15;;
15595;SDS011;7898;48.658;9.068;2023-06-26T12:49:38;8.45;;;7.30;;
15595;SDS011;7898;48.658;9.068;2023-06-26T12:52:07;8.30;;;7.43;;
15595;SDS011;7898;48.658;9.068;2023-06-26T12:54:36;8.32;;;7.53;;
15595;SDS011;7898;48.658;9.068;2023-06-26T12:57:05;8.45;;;7.53;;
15595;SDS011;7898;48.658;9.068;2023-06-26T12:59:32;11.23;;;8.38;;
15595;SDS011;7898;48.658;9.068;2023-06-26T13:02:00;10.20;;;7.10;;
15595;SDS011;7898;48.658;9.068;2023-06-26T13:04:28;9.55;;;7.90;;
15595;SDS011;7898;48.658;9.068;2023-06-26T13:06:56;8.30;;;7.55;;
15595;SDS011;7898;48.658;9.068;2023-06-26T13:09:23;8.73;;;7.47;;
15595;SDS011;7898;48.658;9.068;2023-06-26T13:11:50;8.85;;;8.02;;
15595;SDS011;7898;48.658;9.068;2023-06-26T13:14:17;10.98;;;7.97;;
15595;SDS011;7898;48.658;9.068;2023-06-26T13:16:44;8.20;;;7.38;;
15595;SDS011;7898;48.658;9.068;2023-06-26T13:19:11;13.52;;;7.78;;
15595;SDS011;7898;48.658;9.068;2023-06-26T13:21:40;12.10;;;7.20;;
15595;SDS011;7898;48.658;9.068;2023-06-26T13:24:07;7.85;;;7.05;;
15595;SDS011;7898;48.658;9.068;2023-06-26T13:26:34;8.48;;;7.38;;
15595;SDS011;7898;48.658;9.068;2023-06-26T13:29:01;8.07;;;7.03;;
15595;SDS011;7898;48.658;9.068;2023-06-26T13:31:28;8.55;;;7.60;;
15595;SDS011;7898;48.658;9.068;2023-06-26T13:33:57;7.45;;;6.72;;
15595;SDS011;7898;48.658;9.068;2023-06-26T13:36:24;7.28;;;6.40;;
15595;SDS011;7898;48.658;9.068;2023-06-26T13:38:53;8.93;;;7.45;;
15595;SDS011;7898;48.658;9.068;2023-06-26T13:41:21;8.25;;;7.05;;
15595;SDS011;7898;48.658;9.068;2023-06-26T13:43:48;7.85;;;6.85;;
15595;SDS011;7898;48.658;9.068;2023-06-26T13:46:15;7.68;;;6.82;;
15595;SDS011;7898;48.658;9.068;2023-06-26T13:48:42;7.75;;;6.95;;
15595;SDS011;7898;48.658;9.068;2023-06-26T13:51:09;8.10;;;7.00;;
15595;SDS011;7898;48.658;9.068;2023-06-26T13:53:36;11.57;;;6.97;;
15595;SDS011;7898;48.658;9.068;2023-06-26T13:56:05;8.40;;;6.63;;
15595;SDS011;7898;48.658;9.068;2023-06-26T14:01:01;7.60;;;6.28;;
15595;SDS011;7898;48.658;9.068;2023-06-26T14:03:29;7.80;;;6.22;;
15595;SDS011;7898;48.658;9.068;2023-06-26T14:05:56;8.75;;;6.72;;
15595;SDS011;7898;48.658;9.068;2023-06-26T14:08:22;9.68;;;6.72;;
15595;SDS011;7898;48.658;9.068;2023-06-26T14:10:49;7.60;;;5.85;;
15595;SDS011;7898;48.658;9.068;2023-06-26T14:13:18;7.40;;;6.55;;
15595;SDS011;7898;48.658;9.068;2023-06-26T14:15:44;6.45;;;5.78;;
15595;SDS011;7898;48.658;9.068;2023-06-26T14:18:11;9.50;;;6.07;;
15595;SDS011;7898;48.658;9.068;2023-06-26T14:20:39;7.10;;;6.45;;
15595;SDS011;7898;48.658;9.068;2023-06-26T14:23:06;6.53;;;5.93;;
15595;SDS011;7898;48.658;9.068;2023-06-26T14:25:33;6.93;;;6.03;;
15595;SDS011;7898;48.658;9.068;2023-06-26T14:28:01;7.13;;;6.40;;
15595;SDS011;7898;48.658;9.068;2023-06-26T14:30:29;6.82;;;5.95;;
15595;SDS011;7898;48.658;9.068;2023-06-26T14:32:56;6.35;;;5.75;;
15595;SDS011;7898;48.658;9.068;2023-06-26T14:35:22;6.75;;;5.65;;
15595;SDS011;7898;48.658;9.068;2023-06-26T14:37:49;8.20;;;5.47;;
15595;SDS011;7898;48.658;9.068;2023-06-26T14:40:16;10.00;;;5.97;;
15595;SDS011;7898;48.658;9.068;2023-06-26T14:42:43;5.80;;;5.20;;
15595;SDS011;7898;48.658;9.068;2023-06-26T14:45:10;6.28;;;4.68;;
15595;SDS011;7898;48.658;9.068;2023-06-26T14:47:39;6.90;;;5.15;;
15595;SDS011;7898;48.658;9.068;2023-06-26T14:50:06;4.85;;;4.40;;
15595;SDS011;7898;48.658;9.068;2023-06-26T14:52:34;7.45;;;4.75;;
15595;SDS011;7898;48.658;9.068;2023-06-26T14:55:00;5.85;;;4.60;;
15595;SDS011;7898;48.658;9.068;2023-06-26T14:57:27;5.05;;;4.00;;
15595;SDS011;7898;48.658;9.068;2023-06-26T14:59:54;5.20;;;4.22;;
15595;SDS011;7898;48.658;9.068;2023-06-26T15:02:21;5.68;;;3.80;;